sensor_id;sensor_type;location;lat;lon;timestamp;temperature;humidity
37426;DHT22;23285;50.180;7.036;2022-09-29T00:00:58;10.20;99.90
37426;DHT22;23285;50.180;7.036;2022-09-29T00:09:16;9.40;99.90
37426;DHT22;23285;50.180;7.036;2022-09-29T00:14:47;9.30;99.90
37426;DHT22;23285;50.180;7.036;2022-09-29T00:17:32;9.20;99.90
37426;DHT22;23285;50.180;7.036;2022-09-29T00:20:17;9.10;99.90
37426;DHT22;23285;50.180;7.036;2022-09-29T00:23:02;9.00;99.90
37426;DHT22;23285;50.180;7.036;2022-09-29T00:25:47;9.10;99.90
37426;DHT22;23285;50.180;7.036;2022-09-29T00:28:33;9.20;99.90
37426;DHT22;23285;50.180;7.036;2022-09-29T00:31:19;9.00;99.90
37426;DHT22;23285;50.180;7.036;2022-09-29T00:34:04;8.90;99.90
37426;DHT22;23285;50.180;7.036;2022-09-29T00:36:49;8.90;99.90
37426;DHT22;23285;50.180;7.036;2022-09-29T00:42:20;9.00;99.90
37426;DHT22;23285;50.180;7.036;2022-09-29T00:45:23;8.80;99.90
37426;DHT22;23285;50.180;7.036;2022-09-29T00:48:12;8.80;99.90
37426;DHT22;23285;50.180;7.036;2022-09-29T00:50:59;8.80;99.90
37426;DHT22;23285;50.180;7.036;2022-09-29T00:53:45;8.90;99.90
37426;DHT22;23285;50.180;7.036;2022-09-29T00:56:31;8.80;99.90
37426;DHT22;23285;50.180;7.036;2022-09-29T01:02:07;8.90;99.90
37426;DHT22;23285;50.180;7.036;2022-09-29T01:04:53;8.90;99.90
37426;DHT22;23285;50.180;7.036;2022-09-29T01:07:40;8.80;99.90
37426;DHT22;23285;50.180;7.036;2022-09-29T01:10:27;8.60;99.90
37426;DHT22;23285;50.180;7.036;2022-09-29T01:13:12;8.80;99.90
37426;DHT22;23285;50.180;7.036;2022-09-29T01:18:45;8.90;99.90
37426;DHT22;23285;50.180;7.036;2022-09-29T01:37:05;8.40;99.90
37426;DHT22;23285;50.180;7.036;2022-09-29T01:40:08;8.30;99.90
37426;DHT22;23285;50.180;7.036;2022-09-29T01:42:58;8.40;99.90
37426;DHT22;23285;50.180;7.036;2022-09-29T01:46:08;8.30;99.90
37426;DHT22;23285;50.180;7.036;2022-09-29T01:48:57;8.30;99.90
37426;DHT22;23285;50.180;7.036;2022-09-29T01:58:06;8.00;99.90
37426;DHT22;23285;50.180;7.036;2022-09-29T02:09:25;8.00;99.90
37426;DHT22;23285;50.180;7.036;2022-09-29T02:12:17;8.00;99.90
37426;DHT22;23285;50.180;7.036;2022-09-29T02:15:06;8.00;99.90
37426;DHT22;23285;50.180;7.036;2022-09-29T02:17:56;7.60;99.90
37426;DHT22;23285;50.180;7.036;2022-09-29T02:20:45;7.60;99.90
37426;DHT22;23285;50.180;7.036;2022-09-29T02:23:30;7.90;99.90
37426;DHT22;23285;50.180;7.036;2022-09-29T02:26:17;7.90;99.90
37426;DHT22;23285;50.180;7.036;2022-09-29T02:29:03;7.70;99.90
37426;DHT22;23285;50.180;7.036;2022-09-29T02:31:50;8.00;99.90
37426;DHT22;23285;50.180;7.036;2022-09-29T02:34:42;7.90;99.90
37426;DHT22;23285;50.180;7.036;2022-09-29T02:40:56;7.70;99.90
37426;DHT22;23285;50.180;7.036;2022-09-29T02:43:48;7.40;99.90
37426;DHT22;23285;50.180;7.036;2022-09-29T02:52:47;7.20;99.90
37426;DHT22;23285;50.180;7.036;2022-09-29T02:58:39;7.40;99.90
37426;DHT22;23285;50.180;7.036;2022-09-29T03:01:30;7.50;99.90
37426;DHT22;23285;50.180;7.036;2022-09-29T03:09:47;7.20;99.90
37426;DHT22;23285;50.180;7.036;2022-09-29T03:15:17;7.20;99.90
37426;DHT22;23285;50.180;7.036;2022-09-29T03:18:03;7.30;99.90
37426;DHT22;23285;50.180;7.036;2022-09-29T03:23:33;7.10;99.90
37426;DHT22;23285;50.180;7.036;2022-09-29T03:26:18;7.30;99.90
37426;DHT22;23285;50.180;7.036;2022-09-29T03:29:04;7.30;99.90
37426;DHT22;23285;50.180;7.036;2022-09-29T03:31:49;7.30;99.90
37426;DHT22;23285;50.180;7.036;2022-09-29T03:37:20;7.10;99.90
37426;DHT22;23285;50.180;7.036;2022-09-29T03:40:05;7.10;99.90
37426;DHT22;23285;50.180;7.036;2022-09-29T03:42:51;7.10;99.90
37426;DHT22;23285;50.180;7.036;2022-09-29T03:45:35;7.10;99.90
37426;DHT22;23285;50.180;7.036;2022-09-29T03:48:21;7.50;99.90
37426;DHT22;23285;50.180;7.036;2022-09-29T03:51:07;7.50;99.90
37426;DHT22;23285;50.180;7.036;2022-09-29T03:53:53;7.20;99.90
37426;DHT22;23285;50.180;7.036;2022-09-29T03:56:38;7.10;99.90
37426;DHT22;23285;50.180;7.036;2022-09-29T03:59:23;7.10;99.90
37426;DHT22;23285;50.180;7.036;2022-09-29T04:02:08;7.10;99.90
37426;DHT22;23285;50.180;7.036;2022-09-29T04:04:53;6.90;99.90
37426;DHT22;23285;50.180;7.036;2022-09-29T04:10:24;7.00;99.90
37426;DHT22;23285;50.180;7.036;2022-09-29T04:13:09;7.30;99.90
37426;DHT22;23285;50.180;7.036;2022-09-29T04:16:03;7.10;99.90
37426;DHT22;23285;50.180;7.036;2022-09-29T04:18:48;7.40;99.90
37426;DHT22;23285;50.180;7.036;2022-09-29T04:21:33;7.50;99.90
37426;DHT22;23285;50.180;7.036;2022-09-29T04:24:18;7.60;99.90
37426;DHT22;23285;50.180;7.036;2022-09-29T04:29:49;7.90;99.90
37426;DHT22;23285;50.180;7.036;2022-09-29T04:32:34;7.40;99.90
37426;DHT22;23285;50.180;7.036;2022-09-29T04:35:19;7.10;99.90
37426;DHT22;23285;50.180;7.036;2022-09-29T04:40:51;6.90;99.90
37426;DHT22;23285;50.180;7.036;2022-09-29T04:43:36;6.90;99.90
37426;DHT22;23285;50.180;7.036;2022-09-29T04:46:22;6.90;99.90
37426;DHT22;23285;50.180;7.036;2022-09-29T04:49:07;6.70;99.90
37426;DHT22;23285;50.180;7.036;2022-09-29T04:51:52;6.80;99.90
37426;DHT22;23285;50.180;7.036;2022-09-29T04:54:37;6.80;99.90
37426;DHT22;23285;50.180;7.036;2022-09-29T05:00:09;7.00;99.90
37426;DHT22;23285;50.180;7.036;2022-09-29T05:02:54;6.90;99.90
37426;DHT22;23285;50.180;7.036;2022-09-29T05:05:39;6.80;99.90
37426;DHT22;23285;50.180;7.036;2022-09-29T05:08:24;6.80;99.90
37426;DHT22;23285;50.180;7.036;2022-09-29T05:11:09;6.50;99.90
37426;DHT22;23285;50.180;7.036;2022-09-29T05:13:54;6.70;99.90
37426;DHT22;23285;50.180;7.036;2022-09-29T05:16:39;6.60;99.90
37426;DHT22;23285;50.180;7.036;2022-09-29T05:19:24;6.60;99.90
37426;DHT22;23285;50.180;7.036;2022-09-29T05:22:09;6.70;99.90
37426;DHT22;23285;50.180;7.036;2022-09-29T05:24:54;6.70;99.90
37426;DHT22;23285;50.180;7.036;2022-09-29T05:30:24;6.70;99.90
37426;DHT22;23285;50.180;7.036;2022-09-29T05:33:09;7.00;99.90
37426;DHT22;23285;50.180;7.036;2022-09-29T05:35:55;6.70;99.90
37426;DHT22;23285;50.180;7.036;2022-09-29T05:41:26;7.00;99.90
37426;DHT22;23285;50.180;7.036;2022-09-29T05:44:11;6.40;99.90
37426;DHT22;23285;50.180;7.036;2022-09-29T05:49:41;6.50;99.90
37426;DHT22;23285;50.180;7.036;2022-09-29T05:52:26;6.60;99.90
37426;DHT22;23285;50.180;7.036;2022-09-29T05:55:11;6.60;99.90
37426;DHT22;23285;50.180;7.036;2022-09-29T05:57:56;6.90;99.90
37426;DHT22;23285;50.180;7.036;2022-09-29T06:00:42;7.00;99.90
37426;DHT22;23285;50.180;7.036;2022-09-29T06:09:02;6.60;99.90
37426;DHT22;23285;50.180;7.036;2022-09-29T06:11:47;7.10;99.90
37426;DHT22;23285;50.180;7.036;2022-09-29T06:14:32;7.30;99.90
37426;DHT22;23285;50.180;7.036;2022-09-29T06:17:17;6.80;99.90
37426;DHT22;23285;50.180;7.036;2022-09-29T06:20:03;6.80;99.90
37426;DHT22;23285;50.180;7.036;2022-09-29T06:22:49;6.80;99.90
37426;DHT22;23285;50.180;7.036;2022-09-29T06:25:37;6.80;99.90
37426;DHT22;23285;50.180;7.036;2022-09-29T06:28:22;6.80;99.90
37426;DHT22;23285;50.180;7.036;2022-09-29T06:31:16;6.70;99.90
37426;DHT22;23285;50.180;7.036;2022-09-29T06:36:48;7.20;99.90
37426;DHT22;23285;50.180;7.036;2022-09-29T06:39:51;7.30;99.90
37426;DHT22;23285;50.180;7.036;2022-09-29T06:42:37;7.90;99.90
37426;DHT22;23285;50.180;7.036;2022-09-29T06:48:08;7.90;99.90
37426;DHT22;23285;50.180;7.036;2022-09-29T06:50:55;7.40;99.90
37426;DHT22;23285;50.180;7.036;2022-09-29T06:53:40;7.30;99.90
37426;DHT22;23285;50.180;7.036;2022-09-29T06:56:25;7.70;99.90
37426;DHT22;23285;50.180;7.036;2022-09-29T06:59:12;8.10;99.90
37426;DHT22;23285;50.180;7.036;2022-09-29T07:01:57;8.20;99.90
37426;DHT22;23285;50.180;7.036;2022-09-29T07:04:42;8.40;99.90
37426;DHT22;23285;50.180;7.036;2022-09-29T07:10:13;8.40;99.90
37426;DHT22;23285;50.180;7.036;2022-09-29T07:12:59;8.30;99.90
37426;DHT22;23285;50.180;7.036;2022-09-29T07:15:44;8.40;99.90
37426;DHT22;23285;50.180;7.036;2022-09-29T07:18:34;8.90;99.90
37426;DHT22;23285;50.180;7.036;2022-09-29T07:21:19;8.80;99.90
37426;DHT22;23285;50.180;7.036;2022-09-29T07:24:06;9.00;99.90
37426;DHT22;23285;50.180;7.036;2022-09-29T07:32:22;8.80;99.90
37426;DHT22;23285;50.180;7.036;2022-09-29T07:35:08;9.00;99.90
37426;DHT22;23285;50.180;7.036;2022-09-29T07:37:54;9.00;99.90
37426;DHT22;23285;50.180;7.036;2022-09-29T07:40:39;9.10;99.90
37426;DHT22;23285;50.180;7.036;2022-09-29T07:51:40;9.30;99.90
37426;DHT22;23285;50.180;7.036;2022-09-29T07:54:25;9.40;99.90
37426;DHT22;23285;50.180;7.036;2022-09-29T07:57:10;9.40;99.90
37426;DHT22;23285;50.180;7.036;2022-09-29T07:59:56;9.30;99.90
37426;DHT22;23285;50.180;7.036;2022-09-29T08:02:42;9.20;99.90
37426;DHT22;23285;50.180;7.036;2022-09-29T08:05:29;9.60;99.90
37426;DHT22;23285;50.180;7.036;2022-09-29T08:08:17;10.10;99.90
37426;DHT22;23285;50.180;7.036;2022-09-29T08:11:04;10.30;99.90
37426;DHT22;23285;50.180;7.036;2022-09-29T08:13:51;10.80;99.90
37426;DHT22;23285;50.180;7.036;2022-09-29T08:16:39;11.00;99.90
37426;DHT22;23285;50.180;7.036;2022-09-29T08:22:10;10.90;99.90
37426;DHT22;23285;50.180;7.036;2022-09-29T08:27:41;10.70;99.90
37426;DHT22;23285;50.180;7.036;2022-09-29T08:35:59;10.80;99.90
37426;DHT22;23285;50.180;7.036;2022-09-29T08:38:47;11.20;99.90
37426;DHT22;23285;50.180;7.036;2022-09-29T08:47:24;11.10;99.90
37426;DHT22;23285;50.180;7.036;2022-09-29T08:53:08;11.20;99.90
37426;DHT22;23285;50.180;7.036;2022-09-29T09:01:34;11.90;99.90
37426;DHT22;23285;50.180;7.036;2022-09-29T09:10:48;12.00;99.90
37426;DHT22;23285;50.180;7.036;2022-09-29T09:14:09;12.30;99.90
37426;DHT22;23285;50.180;7.036;2022-09-29T09:26:13;12.20;99.90
37426;DHT22;23285;50.180;7.036;2022-09-29T09:29:30;11.90;99.90
37426;DHT22;23285;50.180;7.036;2022-09-29T09:32:18;12.50;99.90
37426;DHT22;23285;50.180;7.036;2022-09-29T09:37:52;12.80;99.90
37426;DHT22;23285;50.180;7.036;2022-09-29T09:40:42;12.90;99.90
37426;DHT22;23285;50.180;7.036;2022-09-29T09:43:39;12.60;99.90
37426;DHT22;23285;50.180;7.036;2022-09-29T09:49:40;13.40;99.90
37426;DHT22;23285;50.180;7.036;2022-09-29T09:52:40;13.60;99.90
37426;DHT22;23285;50.180;7.036;2022-09-29T09:58:48;14.00;99.90
37426;DHT22;23285;50.180;7.036;2022-09-29T10:01:39;14.30;99.90
37426;DHT22;23285;50.180;7.036;2022-09-29T10:04:24;14.50;99.90
37426;DHT22;23285;50.180;7.036;2022-09-29T10:09:55;13.80;99.90
37426;DHT22;23285;50.180;7.036;2022-09-29T10:12:41;14.10;99.90
37426;DHT22;23285;50.180;7.036;2022-09-29T10:15:32;14.30;99.90
37426;DHT22;23285;50.180;7.036;2022-09-29T10:18:38;14.40;99.90
37426;DHT22;23285;50.180;7.036;2022-09-29T10:21:41;14.40;99.90
37426;DHT22;23285;50.180;7.036;2022-09-29T10:24:28;14.90;99.90
37426;DHT22;23285;50.180;7.036;2022-09-29T10:27:19;15.10;99.90
37426;DHT22;23285;50.180;7.036;2022-09-29T10:30:18;15.30;99.90
37426;DHT22;23285;50.180;7.036;2022-09-29T10:33:04;15.40;99.90
37426;DHT22;23285;50.180;7.036;2022-09-29T10:38:52;15.50;99.90
37426;DHT22;23285;50.180;7.036;2022-09-29T10:41:49;15.80;99.90
37426;DHT22;23285;50.180;7.036;2022-09-29T10:44:38;15.80;99.90
37426;DHT22;23285;50.180;7.036;2022-09-29T10:56:18;15.60;99.90
37426;DHT22;23285;50.180;7.036;2022-09-29T10:59:04;15.30;99.90
37426;DHT22;23285;50.180;7.036;2022-09-29T11:01:59;14.70;99.90
37426;DHT22;23285;50.180;7.036;2022-09-29T11:04:45;14.90;99.90
37426;DHT22;23285;50.180;7.036;2022-09-29T11:07:31;15.30;99.90
37426;DHT22;23285;50.180;7.036;2022-09-29T11:10:33;15.50;99.90
37426;DHT22;23285;50.180;7.036;2022-09-29T11:19:11;16.30;99.90
37426;DHT22;23285;50.180;7.036;2022-09-29T11:25:49;16.10;99.90
37426;DHT22;23285;50.180;7.036;2022-09-29T11:31:42;15.50;99.90
37426;DHT22;23285;50.180;7.036;2022-09-29T11:40:12;15.50;99.90
37426;DHT22;23285;50.180;7.036;2022-09-29T12:11:08;16.40;99.20
37426;DHT22;23285;50.180;7.036;2022-09-29T12:20:13;15.90;99.90
37426;DHT22;23285;50.180;7.036;2022-09-29T12:23:02;15.90;99.90
37426;DHT22;23285;50.180;7.036;2022-09-29T12:26:10;15.60;99.90
37426;DHT22;23285;50.180;7.036;2022-09-29T12:38:15;15.20;99.90
37426;DHT22;23285;50.180;7.036;2022-09-29T12:41:22;15.10;99.90
37426;DHT22;23285;50.180;7.036;2022-09-29T12:50:04;15.20;99.90
37426;DHT22;23285;50.180;7.036;2022-09-29T12:58:57;15.30;99.80
37426;DHT22;23285;50.180;7.036;2022-09-29T13:01:49;15.20;99.90
37426;DHT22;23285;50.180;7.036;2022-09-29T13:29:21;16.80;98.90
37426;DHT22;23285;50.180;7.036;2022-09-29T13:32:08;17.20;97.80
37426;DHT22;23285;50.180;7.036;2022-09-29T13:34:57;17.40;97.90
37426;DHT22;23285;50.180;7.036;2022-09-29T13:37:53;17.70;98.50
37426;DHT22;23285;50.180;7.036;2022-09-29T13:40:38;18.00;97.40
37426;DHT22;23285;50.180;7.036;2022-09-29T13:46:38;18.40;96.40
37426;DHT22;23285;50.180;7.036;2022-09-29T13:58:25;19.20;95.90
37426;DHT22;23285;50.180;7.036;2022-09-29T14:03:56;18.10;95.10
37426;DHT22;23285;50.180;7.036;2022-09-29T14:06:46;17.80;96.80
37426;DHT22;23285;50.180;7.036;2022-09-29T14:15:11;17.70;97.20
37426;DHT22;23285;50.180;7.036;2022-09-29T14:21:02;17.50;96.30
37426;DHT22;23285;50.180;7.036;2022-09-29T14:23:50;17.70;98.00
37426;DHT22;23285;50.180;7.036;2022-09-29T14:26:50;17.60;98.40
37426;DHT22;23285;50.180;7.036;2022-09-29T14:29:41;17.40;98.70
37426;DHT22;23285;50.180;7.036;2022-09-29T14:32:45;17.70;98.10
37426;DHT22;23285;50.180;7.036;2022-09-29T14:38:39;18.70;95.00
37426;DHT22;23285;50.180;7.036;2022-09-29T14:41:28;18.70;94.90
37426;DHT22;23285;50.180;7.036;2022-09-29T14:44:24;18.80;96.10
37426;DHT22;23285;50.180;7.036;2022-09-29T14:50:52;19.60;94.30
37426;DHT22;23285;50.180;7.036;2022-09-29T15:00:19;18.90;94.20
37426;DHT22;23285;50.180;7.036;2022-09-29T15:06:15;18.10;95.90
37426;DHT22;23285;50.180;7.036;2022-09-29T15:09:33;17.60;97.60
37426;DHT22;23285;50.180;7.036;2022-09-29T15:12:30;17.10;98.20
37426;DHT22;23285;50.180;7.036;2022-09-29T15:15:33;16.00;98.90
37426;DHT22;23285;50.180;7.036;2022-09-29T15:30:48;15.40;99.90
37426;DHT22;23285;50.180;7.036;2022-09-29T15:33:36;15.00;99.90
37426;DHT22;23285;50.180;7.036;2022-09-29T15:36:27;15.00;99.90
37426;DHT22;23285;50.180;7.036;2022-09-29T15:42:17;15.10;99.90
37426;DHT22;23285;50.180;7.036;2022-09-29T15:45:19;15.20;99.90
37426;DHT22;23285;50.180;7.036;2022-09-29T15:50:52;14.80;99.90
37426;DHT22;23285;50.180;7.036;2022-09-29T15:53:40;14.60;99.90
37426;DHT22;23285;50.180;7.036;2022-09-29T15:56:27;14.00;99.90
37426;DHT22;23285;50.180;7.036;2022-09-29T16:13:39;14.00;99.90
37426;DHT22;23285;50.180;7.036;2022-09-29T16:16:32;14.10;99.90
37426;DHT22;23285;50.180;7.036;2022-09-29T16:22:17;14.70;99.90
37426;DHT22;23285;50.180;7.036;2022-09-29T16:25:09;15.10;99.90
37426;DHT22;23285;50.180;7.036;2022-09-29T16:27:56;15.40;99.90
37426;DHT22;23285;50.180;7.036;2022-09-29T16:31:06;15.40;99.90
37426;DHT22;23285;50.180;7.036;2022-09-29T16:34:01;14.60;99.90
37426;DHT22;23285;50.180;7.036;2022-09-29T16:39:44;14.60;99.90
37426;DHT22;23285;50.180;7.036;2022-09-29T16:42:29;14.90;99.90
37426;DHT22;23285;50.180;7.036;2022-09-29T16:45:15;14.60;99.90
37426;DHT22;23285;50.180;7.036;2022-09-29T16:48:02;14.10;99.90
37426;DHT22;23285;50.180;7.036;2022-09-29T16:50:53;14.30;99.90
37426;DHT22;23285;50.180;7.036;2022-09-29T16:53:40;14.30;99.90
37426;DHT22;23285;50.180;7.036;2022-09-29T16:56:28;14.20;99.90
37426;DHT22;23285;50.180;7.036;2022-09-29T16:59:18;14.00;99.90
37426;DHT22;23285;50.180;7.036;2022-09-29T17:02:08;13.60;99.90
37426;DHT22;23285;50.180;7.036;2022-09-29T17:04:55;13.20;99.90
37426;DHT22;23285;50.180;7.036;2022-09-29T17:07:40;13.10;99.90
37426;DHT22;23285;50.180;7.036;2022-09-29T17:13:12;12.90;99.90
37426;DHT22;23285;50.180;7.036;2022-09-29T17:15:58;13.20;99.90
37426;DHT22;23285;50.180;7.036;2022-09-29T17:18:43;13.30;99.90
37426;DHT22;23285;50.180;7.036;2022-09-29T17:21:28;13.60;99.90
37426;DHT22;23285;50.180;7.036;2022-09-29T17:26:59;13.70;99.90
37426;DHT22;23285;50.180;7.036;2022-09-29T17:30:03;13.10;99.90
37426;DHT22;23285;50.180;7.036;2022-09-29T17:32:53;13.10;99.90
37426;DHT22;23285;50.180;7.036;2022-09-29T17:35:46;13.50;99.90
37426;DHT22;23285;50.180;7.036;2022-09-29T17:38:31;13.70;99.90
37426;DHT22;23285;50.180;7.036;2022-09-29T17:41:16;13.10;99.90
37426;DHT22;23285;50.180;7.036;2022-09-29T17:44:01;13.20;99.90
37426;DHT22;23285;50.180;7.036;2022-09-29T17:46:49;13.10;99.90
37426;DHT22;23285;50.180;7.036;2022-09-29T17:49:34;13.00;99.90
37426;DHT22;23285;50.180;7.036;2022-09-29T17:52:23;13.50;99.90
37426;DHT22;23285;50.180;7.036;2022-09-29T17:55:09;13.60;99.90
37426;DHT22;23285;50.180;7.036;2022-09-29T17:57:56;13.40;99.90
37426;DHT22;23285;50.180;7.036;2022-09-29T18:00:46;13.00;99.90
37426;DHT22;23285;50.180;7.036;2022-09-29T18:03:35;13.30;99.90
37426;DHT22;23285;50.180;7.036;2022-09-29T18:06:21;12.90;99.90
37426;DHT22;23285;50.180;7.036;2022-09-29T18:09:16;13.00;99.90
37426;DHT22;23285;50.180;7.036;2022-09-29T18:14:46;13.60;99.90
37426;DHT22;23285;50.180;7.036;2022-09-29T18:17:31;13.10;99.90
37426;DHT22;23285;50.180;7.036;2022-09-29T18:23:04;12.70;99.90
37426;DHT22;23285;50.180;7.036;2022-09-29T18:25:50;12.50;99.90
37426;DHT22;23285;50.180;7.036;2022-09-29T18:28:35;12.70;99.90
37426;DHT22;23285;50.180;7.036;2022-09-29T18:31:27;13.00;99.90
37426;DHT22;23285;50.180;7.036;2022-09-29T18:34:17;12.80;99.90
37426;DHT22;23285;50.180;7.036;2022-09-29T18:37:03;12.70;99.90
37426;DHT22;23285;50.180;7.036;2022-09-29T18:39:48;12.30;99.90
37426;DHT22;23285;50.180;7.036;2022-09-29T18:42:45;12.50;99.90
37426;DHT22;23285;50.180;7.036;2022-09-29T18:45:33;12.30;99.90
37426;DHT22;23285;50.180;7.036;2022-09-29T18:48:19;12.40;99.90
37426;DHT22;23285;50.180;7.036;2022-09-29T18:51:04;12.60;99.90
37426;DHT22;23285;50.180;7.036;2022-09-29T18:56:34;12.80;99.90
37426;DHT22;23285;50.180;7.036;2022-09-29T18:59:20;12.80;99.90
37426;DHT22;23285;50.180;7.036;2022-09-29T19:02:08;13.20;99.90
37426;DHT22;23285;50.180;7.036;2022-09-29T19:04:53;13.40;99.90
37426;DHT22;23285;50.180;7.036;2022-09-29T19:07:38;13.00;99.90
37426;DHT22;23285;50.180;7.036;2022-09-29T19:10:23;12.40;99.90
37426;DHT22;23285;50.180;7.036;2022-09-29T19:13:11;12.10;99.90
37426;DHT22;23285;50.180;7.036;2022-09-29T19:21:28;12.30;99.90
37426;DHT22;23285;50.180;7.036;2022-09-29T19:24:13;12.40;99.90
37426;DHT22;23285;50.180;7.036;2022-09-29T19:35:18;12.60;99.90
37426;DHT22;23285;50.180;7.036;2022-09-29T19:38:03;12.50;99.90
37426;DHT22;23285;50.180;7.036;2022-09-29T19:40:48;12.40;99.90
37426;DHT22;23285;50.180;7.036;2022-09-29T19:43:35;12.10;99.90
37426;DHT22;23285;50.180;7.036;2022-09-29T19:46:20;11.80;99.90
37426;DHT22;23285;50.180;7.036;2022-09-29T19:51:51;11.60;99.90
37426;DHT22;23285;50.180;7.036;2022-09-29T19:54:39;11.60;99.90
37426;DHT22;23285;50.180;7.036;2022-09-29T20:00:13;11.90;99.90
37426;DHT22;23285;50.180;7.036;2022-09-29T20:05:44;11.60;99.90
37426;DHT22;23285;50.180;7.036;2022-09-29T20:11:15;11.50;99.90
37426;DHT22;23285;50.180;7.036;2022-09-29T20:14:00;12.00;99.90
37426;DHT22;23285;50.180;7.036;2022-09-29T20:19:32;11.30;99.90
37426;DHT22;23285;50.180;7.036;2022-09-29T20:22:17;11.10;99.90
37426;DHT22;23285;50.180;7.036;2022-09-29T20:30:36;10.60;99.90
37426;DHT22;23285;50.180;7.036;2022-09-29T20:33:21;11.10;99.90
37426;DHT22;23285;50.180;7.036;2022-09-29T20:38:52;11.70;99.90
37426;DHT22;23285;50.180;7.036;2022-09-29T20:41:37;11.20;99.90
37426;DHT22;23285;50.180;7.036;2022-09-29T20:44:23;10.60;99.90
37426;DHT22;23285;50.180;7.036;2022-09-29T20:49:54;10.50;99.90
37426;DHT22;23285;50.180;7.036;2022-09-29T20:52:40;10.80;99.90
37426;DHT22;23285;50.180;7.036;2022-09-29T20:55:27;11.50;99.90
37426;DHT22;23285;50.180;7.036;2022-09-29T20:58:12;11.60;99.90
37426;DHT22;23285;50.180;7.036;2022-09-29T21:01:17;11.70;99.90
37426;DHT22;23285;50.180;7.036;2022-09-29T21:06:58;10.60;99.90
37426;DHT22;23285;50.180;7.036;2022-09-29T21:09:43;10.30;99.90
37426;DHT22;23285;50.180;7.036;2022-09-29T21:15:15;10.30;99.90
37426;DHT22;23285;50.180;7.036;2022-09-29T21:20:46;10.80;99.90
37426;DHT22;23285;50.180;7.036;2022-09-29T21:23:32;10.60;99.90
37426;DHT22;23285;50.180;7.036;2022-09-29T21:26:19;10.40;99.90
37426;DHT22;23285;50.180;7.036;2022-09-29T21:29:04;10.20;99.90
37426;DHT22;23285;50.180;7.036;2022-09-29T21:31:49;10.10;99.90
37426;DHT22;23285;50.180;7.036;2022-09-29T21:34:35;10.20;99.90
37426;DHT22;23285;50.180;7.036;2022-09-29T21:37:20;10.30;99.90
37426;DHT22;23285;50.180;7.036;2022-09-29T21:42:51;9.90;99.90
37426;DHT22;23285;50.180;7.036;2022-09-29T21:45:36;9.90;99.90
37426;DHT22;23285;50.180;7.036;2022-09-29T21:48:21;10.00;99.90
37426;DHT22;23285;50.180;7.036;2022-09-29T21:51:12;10.00;99.90
37426;DHT22;23285;50.180;7.036;2022-09-29T21:56:45;10.10;99.90
37426;DHT22;23285;50.180;7.036;2022-09-29T21:59:31;9.80;99.90
37426;DHT22;23285;50.180;7.036;2022-09-29T22:02:16;9.40;99.90
37426;DHT22;23285;50.180;7.036;2022-09-29T22:07:47;9.50;99.90
37426;DHT22;23285;50.180;7.036;2022-09-29T22:10:34;9.40;99.90
37426;DHT22;23285;50.180;7.036;2022-09-29T22:13:20;9.60;99.90
37426;DHT22;23285;50.180;7.036;2022-09-29T22:16:14;10.00;99.90
37426;DHT22;23285;50.180;7.036;2022-09-29T22:19:00;9.80;99.90
37426;DHT22;23285;50.180;7.036;2022-09-29T22:22:06;9.50;99.90
37426;DHT22;23285;50.180;7.036;2022-09-29T22:24:51;9.50;99.90
37426;DHT22;23285;50.180;7.036;2022-09-29T22:27:36;9.70;99.90
37426;DHT22;23285;50.180;7.036;2022-09-29T22:30:21;10.00;99.90
37426;DHT22;23285;50.180;7.036;2022-09-29T22:33:06;10.30;99.90
37426;DHT22;23285;50.180;7.036;2022-09-29T22:35:55;9.80;99.90
37426;DHT22;23285;50.180;7.036;2022-09-29T22:38:41;9.30;99.90
37426;DHT22;23285;50.180;7.036;2022-09-29T22:44:17;9.10;99.90
37426;DHT22;23285;50.180;7.036;2022-09-29T22:47:03;9.50;99.90
37426;DHT22;23285;50.180;7.036;2022-09-29T22:49:49;9.30;99.90
37426;DHT22;23285;50.180;7.036;2022-09-29T22:52:34;9.20;99.90
37426;DHT22;23285;50.180;7.036;2022-09-29T22:55:19;9.20;99.90
37426;DHT22;23285;50.180;7.036;2022-09-29T23:03:45;9.00;99.90
37426;DHT22;23285;50.180;7.036;2022-09-29T23:06:31;9.10;99.90
37426;DHT22;23285;50.180;7.036;2022-09-29T23:09:16;9.10;99.90
37426;DHT22;23285;50.180;7.036;2022-09-29T23:12:04;9.60;99.90
37426;DHT22;23285;50.180;7.036;2022-09-29T23:14:50;9.50;99.90
37426;DHT22;23285;50.180;7.036;2022-09-29T23:17:36;9.00;99.90
37426;DHT22;23285;50.180;7.036;2022-09-29T23:20:21;9.10;99.90
37426;DHT22;23285;50.180;7.036;2022-09-29T23:23:06;9.00;99.90
37426;DHT22;23285;50.180;7.036;2022-09-29T23:25:51;9.00;99.90
37426;DHT22;23285;50.180;7.036;2022-09-29T23:28:36;9.00;99.90
37426;DHT22;23285;50.180;7.036;2022-09-29T23:31:22;9.00;99.90
37426;DHT22;23285;50.180;7.036;2022-09-29T23:34:11;9.00;99.90
37426;DHT22;23285;50.180;7.036;2022-09-29T23:36:57;9.00;99.90
37426;DHT22;23285;50.180;7.036;2022-09-29T23:42:28;8.80;99.90
37426;DHT22;23285;50.180;7.036;2022-09-29T23:45:13;8.60;99.90
37426;DHT22;23285;50.180;7.036;2022-09-29T23:47:58;8.70;99.90
37426;DHT22;23285;50.180;7.036;2022-09-29T23:56:14;8.90;99.90
